Time;durP1;ratioP1;P1;durP2;ratioP2;P2;SDS_P1;SDS_P2;PMS_P1;PMS_P2;Temp;Humidity;BMP_temperature;BMP_pressure;BME280_temperature;BME280_humidity;BME280_pressure;Samples;Min_cycle;Max_cycle;Signal;HPM_P1;HPM_P2
2023/06/29 00:01:30;;;;;;;5.97;4.65;;;;;;;;;;5075096;28;20028;-74
2023/06/29 00:03:57;;;;;;;5.25;4.35;;;;;;;;;;5074765;28;20057;-74
2023/06/29 00:06:22;;;;;;;5.88;4.70;;;;;;;;;;5057494;28;20036;-74
2023/06/29 00:08:48;;;;;;;5.38;4.85;;;;;;;;;;5075041;28;20021;-74
2023/06/29 00:11:13;;;;;;;6.85;4.70;;;;;;;;;;5056842;28;20032;-74
2023/06/29 00:13:38;;;;;;;4.88;4.32;;;;;;;;;;5056915;28;20035;-74
2023/06/29 00:16:04;;;;;;;5.93;4.68;;;;;;;;;;5056731;28;20344;-74
2023/06/29 00:18:29;;;;;;;5.47;4.65;;;;;;;;;;5056542;28;20044;-73
2023/06/29 00:20:56;;;;;;;6.85;4.72;;;;;;;;;;5074747;28;20418;-76
2023/06/29 00:23:21;;;;;;;5.05;4.55;;;;;;;;;;5074398;28;20567;-74
2023/06/29 00:25:47;;;;;;;5.38;4.78;;;;;;;;;;5056808;28;20056;-74
2023/06/29 00:28:13;;;;;;;5.90;4.32;;;;;;;;;;5056687;28;20414;-74
2023/06/29 00:30:38;;;;;;;6.00;5.03;;;;;;;;;;5055318;28;20074;-75
2023/06/29 00:33:04;;;;;;;5.70;4.90;;;;;;;;;;5056350;28;20028;-74
2023/06/29 00:35:29;;;;;;;7.38;5.13;;;;;;;;;;5039762;28;20047;-75
2023/06/29 00:37:55;;;;;;;4.90;4.40;;;;;;;;;;5056617;28;20118;-74
2023/06/29 00:40:20;;;;;;;7.05;4.80;;;;;;;;;;5056323;28;20348;-74
2023/06/29 00:42:46;;;;;;;5.00;4.50;;;;;;;;;;5074325;28;20033;-74
2023/06/29 00:45:11;;;;;;;5.43;4.53;;;;;;;;;;5056110;28;20437;-74
2023/06/29 00:47:37;;;;;;;5.78;4.70;;;;;;;;;;5056099;28;20032;-74
2023/06/29 00:50:03;;;;;;;5.50;4.47;;;;;;;;;;5056257;28;20104;-74
2023/06/29 00:52:28;;;;;;;6.07;4.68;;;;;;;;;;5055872;28;20127;-74
2023/06/29 00:54:55;;;;;;;5.70;4.53;;;;;;;;;;5056385;28;20033;-74
2023/06/29 00:57:20;;;;;;;7.25;4.60;;;;;;;;;;5056042;28;20032;-74
2023/06/29 00:59:46;;;;;;;4.95;4.35;;;;;;;;;;5073689;28;20059;-75
2023/06/29 01:02:14;;;;;;;5.80;4.70;;;;;;;;;;5073538;28;20059;-74
2023/06/29 01:04:40;;;;;;;8.27;4.70;;;;;;;;;;5056338;28;20031;-74
2023/06/29 01:07:29;;;;;;;6.00;4.68;;;;;;;;;;5056016;28;20055;-75
2023/06/29 01:09:54;;;;;;;6.10;4.60;;;;;;;;;;5059793;28;20032;-74
2023/06/29 01:12:20;;;;;;;7.18;4.80;;;;;;;;;;5055655;28;20031;-75
2023/06/29 01:14:46;;;;;;;5.18;4.68;;;;;;;;;;5038899;28;20434;-74
2023/06/29 01:17:13;;;;;;;5.32;4.70;;;;;;;;;;5055772;28;20135;-74
2023/06/29 01:19:43;;;;;;;8.10;4.63;;;;;;;;;;5055748;28;20067;-74
2023/06/29 01:22:20;;;;;;;5.78;4.72;;;;;;;;;;5038921;28;20055;-74
2023/06/29 01:24:47;;;;;;;6.53;5.07;;;;;;;;;;5055473;28;20024;-74
2023/06/29 01:27:12;;;;;;;6.65;4.65;;;;;;;;;;5055773;28;20056;-76
2023/06/29 01:29:39;;;;;;;6.13;4.65;;;;;;;;;;5073602;28;20391;-74
2023/06/29 01:32:07;;;;;;;6.15;5.07;;;;;;;;;;5038811;28;20460;-74
2023/06/29 01:34:34;;;;;;;5.47;4.85;;;;;;;;;;5055493;28;20039;-74
2023/06/29 01:37:07;;;;;;;7.88;5.05;;;;;;;;;;5055695;28;20024;-75
2023/06/29 01:39:59;;;;;;;6.95;4.68;;;;;;;;;;5055476;28;20025;-74
2023/06/29 01:42:26;;;;;;;5.40;4.72;;;;;;;;;;5072180;28;20164;-74
2023/06/29 01:44:54;;;;;;;5.90;4.93;;;;;;;;;;5055151;28;20056;-74
2023/06/29 01:47:20;;;;;;;5.93;4.80;;;;;;;;;;5056115;28;20047;-74
2023/06/29 01:49:45;;;;;;;6.65;4.90;;;;;;;;;;5055026;28;20482;-74
2023/06/29 01:52:11;;;;;;;8.15;5.15;;;;;;;;;;5039135;28;20047;-75
2023/06/29 01:54:36;;;;;;;6.05;4.93;;;;;;;;;;5055581;28;20024;-74
2023/06/29 01:57:05;;;;;;;5.20;4.60;;;;;;;;;;5055576;28;20028;-75
2023/06/29 01:59:30;;;;;;;6.90;4.68;;;;;;;;;;5073151;28;20111;-74
2023/06/29 02:01:55;;;;;;;8.77;5.07;;;;;;;;;;5073232;28;20483;-75
2023/06/29 02:04:21;;;;;;;5.28;4.72;;;;;;;;;;5035466;28;20056;-75
2023/06/29 02:06:46;;;;;;;6.60;5.28;;;;;;;;;;5052862;28;20029;-75
2023/06/29 02:09:11;;;;;;;6.55;5.10;;;;;;;;;;5053006;28;20029;-74
2023/06/29 02:11:37;;;;;;;5.95;4.97;;;;;;;;;;5052738;28;20035;-74
2023/06/29 02:14:02;;;;;;;6.82;5.13;;;;;;;;;;5052744;28;20079;-74
2023/06/29 02:16:28;;;;;;;5.82;4.60;;;;;;;;;;5052941;28;20029;-75
2023/06/29 02:18:53;;;;;;;5.38;4.88;;;;;;;;;;5053643;28;20059;-75
2023/06/29 02:21:20;;;;;;;6.60;4.88;;;;;;;;;;5035073;28;20029;-75
2023/06/29 02:23:45;;;;;;;8.88;5.80;;;;;;;;;;5053197;28;20044;-74
2023/06/29 02:26:11;;;;;;;6.13;4.85;;;;;;;;;;5053000;28;20029;-74
2023/06/29 02:28:37;;;;;;;6.18;4.75;;;;;;;;;;5052897;28;20025;-74
2023/06/29 02:31:02;;;;;;;6.72;4.70;;;;;;;;;;5018210;28;20079;-75
2023/06/29 02:33:28;;;;;;;6.18;4.70;;;;;;;;;;5052772;28;20025;-74
2023/06/29 02:35:53;;;;;;;6.18;5.25;;;;;;;;;;5052916;28;20033;-75
2023/06/29 02:38:19;;;;;;;7.72;5.20;;;;;;;;;;5001865;28;20527;-74
2023/06/29 02:40:44;;;;;;;6.57;4.97;;;;;;;;;;5018937;28;20033;-74
2023/06/29 02:43:10;;;;;;;6.35;5.05;;;;;;;;;;5034860;28;20095;-75
2023/06/29 02:45:35;;;;;;;6.20;5.28;;;;;;;;;;5052681;28;20492;-75
2023/06/29 02:48:01;;;;;;;5.75;4.88;;;;;;;;;;5052871;28;20546;-75
2023/06/29 02:50:26;;;;;;;5.82;4.88;;;;;;;;;;5053162;28;20119;-75
2023/06/29 02:52:52;;;;;;;6.15;4.93;;;;;;;;;;5035020;28;20039;-75
2023/06/29 02:55:22;;;;;;;6.35;4.72;;;;;;;;;;5054976;28;20044;-75
2023/06/29 02:57:47;;;;;;;8.07;5.47;;;;;;;;;;5038222;28;20056;-75
2023/06/29 03:00:13;;;;;;;6.07;5.25;;;;;;;;;;5056030;28;20059;-75
2023/06/29 03:02:39;;;;;;;6.00;5.13;;;;;;;;;;5061288;28;20061;-74
2023/06/29 03:05:04;;;;;;;6.15;5.00;;;;;;;;;;5058656;28;20133;-75
2023/06/29 03:07:30;;;;;;;6.78;5.13;;;;;;;;;;5075440;28;20029;-75
2023/06/29 03:09:55;;;;;;;6.78;5.15;;;;;;;;;;5075861;28;20119;-75
2023/06/29 03:12:21;;;;;;;5.95;5.35;;;;;;;;;;5076075;28;20471;-75
2023/06/29 03:14:47;;;;;;;5.68;4.80;;;;;;;;;;5075746;28;20178;-75
2023/06/29 03:17:14;;;;;;;5.53;4.80;;;;;;;;;;5076167;28;20123;-75
2023/06/29 03:19:39;;;;;;;6.68;5.55;;;;;;;;;;5075861;28;20428;-75
2023/06/29 03:22:04;;;;;;;6.10;5.15;;;;;;;;;;5075661;28;20063;-74
2023/06/29 03:24:30;;;;;;;6.28;5.53;;;;;;;;;;5057868;28;20483;-75
2023/06/29 03:26:55;;;;;;;6.03;5.10;;;;;;;;;;5075580;28;20032;-74
2023/06/29 03:29:20;;;;;;;6.47;5.45;;;;;;;;;;5057700;28;20028;-74
2023/06/29 03:31:46;;;;;;;6.55;5.57;;;;;;;;;;5057720;28;20029;-75
2023/06/29 03:34:11;;;;;;;5.70;4.95;;;;;;;;;;5057518;28;20600;-75
2023/06/29 03:36:36;;;;;;;7.68;5.45;;;;;;;;;;5075537;28;20048;-75
2023/06/29 03:39:03;;;;;;;7.22;5.20;;;;;;;;;;5057641;28;20104;-74
2023/06/29 03:41:29;;;;;;;6.78;5.30;;;;;;;;;;5075535;28;20024;-76
2023/06/29 03:43:55;;;;;;;8.00;5.40;;;;;;;;;;5075674;28;20024;-74
2023/06/29 03:46:20;;;;;;;6.47;5.32;;;;;;;;;;5075137;28;20538;-74
2023/06/29 03:48:46;;;;;;;5.95;5.05;;;;;;;;;;5057304;28;20115;-75
2023/06/29 03:51:11;;;;;;;6.72;5.32;;;;;;;;;;5075266;28;20429;-75
2023/06/29 03:53:37;;;;;;;6.40;5.13;;;;;;;;;;5057407;28;20422;-74
2023/06/29 03:56:02;;;;;;;7.22;5.50;;;;;;;;;;5057023;28;20036;-74
2023/06/29 03:58:27;;;;;;;6.25;5.03;;;;;;;;;;5074746;28;20028;-75
2023/06/29 04:00:53;;;;;;;6.38;5.13;;;;;;;;;;5075366;28;20051;-74
2023/06/29 04:03:18;;;;;;;6.97;4.95;;;;;;;;;;5075851;28;20052;-75
2023/06/29 04:05:44;;;;;;;9.55;5.57;;;;;;;;;;5076291;28;20399;-74
2023/06/29 04:08:09;;;;;;;6.35;5.38;;;;;;;;;;5041713;28;20042;-75
2023/06/29 04:10:34;;;;;;;6.05;4.90;;;;;;;;;;5041222;28;20428;-75
2023/06/29 04:13:00;;;;;;;7.65;5.07;;;;;;;;;;5077368;28;20029;-74
2023/06/29 04:15:26;;;;;;;8.10;5.30;;;;;;;;;;5057523;28;20047;-75
2023/06/29 04:17:51;;;;;;;6.60;5.45;;;;;;;;;;5057277;28;20039;-75
2023/06/29 04:20:17;;;;;;;8.23;5.65;;;;;;;;;;5074877;28;20024;-75
2023/06/29 04:22:42;;;;;;;6.38;5.68;;;;;;;;;;5057012;28;20475;-74
2023/06/29 04:25:09;;;;;;;6.97;5.25;;;;;;;;;;5056868;28;20532;-74
2023/06/29 04:27:34;;;;;;;7.72;5.63;;;;;;;;;;5075146;28;20032;-74
2023/06/29 04:30:02;;;;;;;10.80;6.78;;;;;;;;;;5057135;28;20032;-75
2023/06/29 04:32:27;;;;;;;12.40;7.82;;;;;;;;;;5056914;28;20070;-74
2023/06/29 04:34:52;;;;;;;12.05;6.72;;;;;;;;;;5074722;28;20028;-74
2023/06/29 04:37:19;;;;;;;8.55;6.38;;;;;;;;;;5040376;28;20040;-74
2023/06/29 04:39:44;;;;;;;10.43;6.53;;;;;;;;;;5072766;28;20029;-75
2023/06/29 04:42:13;;;;;;;8.43;6.03;;;;;;;;;;5055760;28;20028;-74
2023/06/29 04:44:39;;;;;;;9.20;6.18;;;;;;;;;;5056213;28;20060;-75
2023/06/29 04:47:05;;;;;;;10.60;6.43;;;;;;;;;;5055638;28;20040;-74
2023/06/29 04:49:37;;;;;;;9.43;5.47;;;;;;;;;;5055610;28;20025;-75
2023/06/29 04:52:03;;;;;;;8.18;4.88;;;;;;;;;;5073676;28;20035;-75
2023/06/29 04:54:29;;;;;;;11.95;5.53;;;;;;;;;;5040717;28;20495;-75
2023/06/29 04:56:56;;;;;;;8.73;4.88;;;;;;;;;;5055284;28;20038;-76
2023/06/29 04:59:24;;;;;;;11.20;5.75;;;;;;;;;;5055479;28;20438;-75
2023/06/29 05:01:49;;;;;;;29.77;9.57;;;;;;;;;;5055179;28;20024;-78
2023/06/29 05:04:15;;;;;;;42.92;12.32;;;;;;;;;;5055020;28;20075;-78
2023/06/29 05:06:40;;;;;;;37.00;13.18;;;;;;;;;;5055260;28;20376;-78
2023/06/29 05:09:06;;;;;;;35.53;13.63;;;;;;;;;;5055338;28;20020;-76
2023/06/29 05:11:31;;;;;;;32.72;12.90;;;;;;;;;;5054960;28;20483;-75
2023/06/29 05:13:56;;;;;;;37.30;13.98;;;;;;;;;;5073163;28;20118;-78
2023/06/29 05:16:22;;;;;;;29.55;12.45;;;;;;;;;;5055319;28;20086;-77
2023/06/29 05:18:47;;;;;;;31.10;13.85;;;;;;;;;;5073739;28;20064;-78
2023/06/29 05:21:14;;;;;;;32.33;12.75;;;;;;;;;;5073516;28;20029;-78
2023/06/29 05:23:39;;;;;;;29.77;12.75;;;;;;;;;;5022964;28;20476;-78
2023/06/29 05:26:04;;;;;;;30.98;11.88;;;;;;;;;;5074228;28;20151;-77
2023/06/29 05:28:31;;;;;;;33.15;13.50;;;;;;;;;;5055824;28;20032;-77
2023/06/29 05:30:56;;;;;;;23.88;11.63;;;;;;;;;;5055952;28;20154;-77
2023/06/29 05:33:22;;;;;;;24.52;11.52;;;;;;;;;;5038877;28;20118;-78
2023/06/29 05:35:47;;;;;;;24.65;11.70;;;;;;;;;;5073852;28;20036;-78
2023/06/29 05:38:12;;;;;;;26.75;11.77;;;;;;;;;;5055267;28;20035;-78
2023/06/29 05:40:38;;;;;;;24.17;10.57;;;;;;;;;;5055716;28;20028;-78
2023/06/29 05:43:03;;;;;;;19.67;10.48;;;;;;;;;;5039579;28;20032;-78
2023/06/29 05:45:29;;;;;;;23.92;10.30;;;;;;;;;;5073061;28;20052;-77
2023/06/29 05:47:55;;;;;;;19.13;10.07;;;;;;;;;;5073283;28;20056;-77
2023/06/29 05:50:20;;;;;;;18.73;9.68;;;;;;;;;;5055217;28;20024;-78
2023/06/29 05:52:46;;;;;;;16.33;8.77;;;;;;;;;;5055088;28;20090;-78
2023/06/29 05:55:11;;;;;;;24.33;9.88;;;;;;;;;;5073499;28;20475;-78
2023/06/29 05:57:37;;;;;;;17.17;8.70;;;;;;;;;;5073343;28;20101;-78
2023/06/29 06:00:07;;;;;;;14.30;8.35;;;;;;;;;;5038149;28;20028;-78
2023/06/29 06:02:32;;;;;;;14.70;8.95;;;;;;;;;;5055444;28;20035;-78
2023/06/29 06:04:58;;;;;;;16.73;9.48;;;;;;;;;;5054858;28;20045;-78
2023/06/29 06:07:28;;;;;;;17.63;8.55;;;;;;;;;;5055086;28;20145;-78
2023/06/29 06:09:53;;;;;;;13.10;8.43;;;;;;;;;;5054825;28;20467;-77
2023/06/29 06:12:19;;;;;;;16.23;8.77;;;;;;;;;;5055122;28;20036;-77
2023/06/29 06:14:44;;;;;;;12.15;7.65;;;;;;;;;;5054981;28;20487;-77
2023/06/29 06:17:09;;;;;;;11.50;7.82;;;;;;;;;;5055328;28;20033;-77
2023/06/29 06:19:35;;;;;;;11.88;7.50;;;;;;;;;;5055703;28;20040;-77
2023/06/29 06:22:00;;;;;;;14.52;8.20;;;;;;;;;;5055581;28;20032;-77
2023/06/29 06:24:25;;;;;;;13.27;8.23;;;;;;;;;;5074279;28;20028;-78
2023/06/29 06:26:51;;;;;;;12.23;7.45;;;;;;;;;;5040715;28;20078;-77
2023/06/29 06:29:16;;;;;;;10.80;6.78;;;;;;;;;;5079687;28;20462;-77
2023/06/29 06:31:41;;;;;;;9.52;7.38;;;;;;;;;;5047798;28;20028;-77
2023/06/29 06:34:07;;;;;;;10.93;7.43;;;;;;;;;;5027871;28;20086;-77
2023/06/29 06:36:32;;;;;;;11.90;7.75;;;;;;;;;;5042424;28;20086;-77
2023/06/29 06:38:58;;;;;;;10.25;7.05;;;;;;;;;;5059949;28;20028;-77
2023/06/29 06:41:23;;;;;;;10.20;7.30;;;;;;;;;;5042222;28;20039;-77
2023/06/29 06:43:49;;;;;;;10.50;7.05;;;;;;;;;;5059129;28;20479;-77
2023/06/29 06:46:14;;;;;;;10.02;7.50;;;;;;;;;;5058568;28;20048;-77
2023/06/29 06:48:40;;;;;;;9.73;7.10;;;;;;;;;;5058605;28;20027;-77
2023/06/29 06:51:05;;;;;;;12.40;7.57;;;;;;;;;;5076283;28;20062;-77
2023/06/29 06:53:31;;;;;;;11.05;7.65;;;;;;;;;;5076530;28;20029;-77
2023/06/29 06:55:56;;;;;;;11.40;7.55;;;;;;;;;;5076250;28;20028;-78
2023/06/29 06:58:22;;;;;;;12.00;7.15;;;;;;;;;;5077433;28;20028;-78
2023/06/29 07:00:48;;;;;;;9.55;7.40;;;;;;;;;;5057973;28;20055;-78
2023/06/29 07:03:13;;;;;;;12.35;7.55;;;;;;;;;;5057913;28;20461;-78
2023/06/29 07:05:38;;;;;;;11.82;7.93;;;;;;;;;;5057980;28;20028;-78
2023/06/29 07:08:04;;;;;;;13.23;8.30;;;;;;;;;;5067591;28;20033;-78
2023/06/29 07:10:29;;;;;;;9.90;7.78;;;;;;;;;;5041216;28;20078;-78
2023/06/29 07:12:55;;;;;;;13.57;8.10;;;;;;;;;;5041147;28;20032;-77
2023/06/29 07:15:20;;;;;;;10.82;8.05;;;;;;;;;;5057845;28;20081;-78
2023/06/29 07:17:46;;;;;;;12.07;8.15;;;;;;;;;;5057902;28;20048;-77
2023/06/29 07:20:12;;;;;;;10.85;7.47;;;;;;;;;;5057923;28;20098;-77
2023/06/29 07:22:38;;;;;;;11.80;8.38;;;;;;;;;;5041078;28;20032;-77
2023/06/29 07:25:04;;;;;;;10.15;7.35;;;;;;;;;;5057689;28;20391;-77
2023/06/29 07:27:30;;;;;;;10.82;7.82;;;;;;;;;;5075863;28;20039;-76
2023/06/29 07:29:56;;;;;;;11.50;8.20;;;;;;;;;;5057888;28;20548;-76
2023/06/29 07:32:21;;;;;;;11.02;8.63;;;;;;;;;;5057693;28;20067;-77
2023/06/29 07:34:47;;;;;;;10.05;7.97;;;;;;;;;;5075930;28;20467;-77
2023/06/29 07:37:12;;;;;;;10.52;7.68;;;;;;;;;;5075425;28;20063;-76
2023/06/29 07:39:38;;;;;;;11.50;7.72;;;;;;;;;;5056983;28;20052;-77
2023/06/29 07:42:03;;;;;;;9.85;7.63;;;;;;;;;;5057711;28;20107;-77
2023/06/29 07:44:29;;;;;;;10.93;7.53;;;;;;;;;;5057913;28;20447;-76
2023/06/29 07:46:54;;;;;;;9.50;7.57;;;;;;;;;;5024407;28;20067;-77
2023/06/29 07:49:21;;;;;;;10.18;7.70;;;;;;;;;;5057458;28;20028;-76
2023/06/29 07:51:47;;;;;;;10.57;7.65;;;;;;;;;;5074998;28;20383;-74
2023/06/29 07:54:12;;;;;;;10.50;8.38;;;;;;;;;;5057612;28;20066;-77
2023/06/29 07:56:38;;;;;;;11.60;7.97;;;;;;;;;;5040729;28;20082;-77
2023/06/29 07:59:03;;;;;;;11.02;8.05;;;;;;;;;;5056968;28;20083;-75
2023/06/29 08:01:29;;;;;;;10.32;7.22;;;;;;;;;;5056986;28;20113;-75
2023/06/29 08:03:54;;;;;;;10.80;7.57;;;;;;;;;;5056812;28;20448;-76
2023/06/29 08:06:20;;;;;;;11.88;7.25;;;;;;;;;;5074938;28;20554;-76
2023/06/29 08:08:45;;;;;;;9.57;7.65;;;;;;;;;;5057047;28;20024;-76
2023/06/29 08:11:12;;;;;;;10.00;7.80;;;;;;;;;;5075118;28;20025;-76
2023/06/29 08:13:38;;;;;;;10.70;8.10;;;;;;;;;;5040046;28;20031;-76
2023/06/29 08:16:03;;;;;;;11.60;8.02;;;;;;;;;;5023488;28;20032;-76
2023/06/29 08:18:29;;;;;;;10.45;7.28;;;;;;;;;;5074872;28;20052;-76
2023/06/29 08:20:54;;;;;;;9.82;7.85;;;;;;;;;;5074857;28;20475;-76
2023/06/29 08:23:20;;;;;;;11.25;7.88;;;;;;;;;;5074405;28;20045;-76
2023/06/29 08:25:45;;;;;;;9.27;7.13;;;;;;;;;;5074283;28;20166;-76
2023/06/29 08:28:11;;;;;;;9.80;7.50;;;;;;;;;;5039865;28;20082;-76
2023/06/29 08:30:36;;;;;;;8.98;7.78;;;;;;;;;;5056730;28;20111;-76
2023/06/29 08:33:02;;;;;;;11.60;7.82;;;;;;;;;;5056360;28;20487;-76
2023/06/29 08:35:27;;;;;;;9.60;7.95;;;;;;;;;;5040319;28;20416;-76
2023/06/29 08:37:54;;;;;;;10.32;7.70;;;;;;;;;;5039729;28;20036;-76
2023/06/29 08:40:22;;;;;;;8.57;7.10;;;;;;;;;;5056350;28;20024;-75
2023/06/29 08:42:48;;;;;;;12.30;8.57;;;;;;;;;;5073930;28;20471;-75
2023/06/29 08:45:14;;;;;;;10.05;7.88;;;;;;;;;;5056374;28;20451;-75
2023/06/29 08:47:41;;;;;;;11.43;7.97;;;;;;;;;;5074287;28;20059;-76
2023/06/29 08:50:09;;;;;;;10.27;8.25;;;;;;;;;;5056314;28;20067;-75
2023/06/29 08:52:35;;;;;;;10.90;7.95;;;;;;;;;;5055199;28;20021;-76
2023/06/29 08:55:01;;;;;;;11.27;7.85;;;;;;;;;;5039396;28;20398;-76
2023/06/29 08:57:28;;;;;;;9.35;7.35;;;;;;;;;;5055999;28;20078;-76
2023/06/29 08:59:54;;;;;;;13.57;8.18;;;;;;;;;;5056092;28;20032;-77
2023/06/29 09:02:19;;;;;;;9.25;7.20;;;;;;;;;;5055667;28;20047;-77
2023/06/29 09:04:45;;;;;;;10.30;7.30;;;;;;;;;;5073474;28;20136;-76
2023/06/29 09:07:10;;;;;;;9.15;7.32;;;;;;;;;;5074029;28;20090;-77
2023/06/29 09:09:36;;;;;;;9.55;7.43;;;;;;;;;;5039098;28;20047;-76
2023/06/29 09:12:01;;;;;;;9.45;7.30;;;;;;;;;;5039184;28;20025;-77
2023/06/29 09:14:28;;;;;;;10.13;7.68;;;;;;;;;;5039215;28;20036;-76
2023/06/29 09:16:58;;;;;;;9.75;7.82;;;;;;;;;;5039428;28;20398;-76
2023/06/29 09:19:24;;;;;;;10.40;7.75;;;;;;;;;;5074503;28;20060;-76
2023/06/29 09:21:50;;;;;;;10.35;8.25;;;;;;;;;;5041117;28;20062;-77
2023/06/29 09:24:19;;;;;;;10.32;7.72;;;;;;;;;;5039834;28;20678;-77
2023/06/29 09:26:53;;;;;;;11.45;7.82;;;;;;;;;;5075229;28;20051;-77
2023/06/29 09:29:19;;;;;;;11.20;8.63;;;;;;;;;;5056895;28;20025;-76
2023/06/29 09:31:56;;;;;;;10.70;8.15;;;;;;;;;;5038801;28;20145;-77
2023/06/29 09:34:22;;;;;;;9.77;7.85;;;;;;;;;;5055972;28;20052;-77
2023/06/29 09:36:48;;;;;;;11.07;8.43;;;;;;;;;;5055795;28;20478;-77
2023/06/29 09:39:14;;;;;;;9.80;7.93;;;;;;;;;;5055388;28;20025;-76
2023/06/29 09:41:56;;;;;;;12.13;9.05;;;;;;;;;;5055546;28;20016;-77
2023/06/29 09:44:23;;;;;;;15.15;9.00;;;;;;;;;;5055232;28;20023;-77
2023/06/29 09:46:50;;;;;;;12.50;8.90;;;;;;;;;;5054837;28;20021;-77
2023/06/29 09:49:17;;;;;;;10.90;8.20;;;;;;;;;;5055197;28;20091;-77
2023/06/29 09:51:43;;;;;;;9.85;7.70;;;;;;;;;;5055338;28;20063;-77
2023/06/29 09:54:13;;;;;;;11.13;8.38;;;;;;;;;;5055021;28;20078;-77
2023/06/29 09:56:40;;;;;;;11.05;8.90;;;;;;;;;;5055149;28;20025;-77
2023/06/29 09:59:09;;;;;;;11.63;8.88;;;;;;;;;;5047188;28;20032;-76
2023/06/29 10:01:35;;;;;;;11.23;8.23;;;;;;;;;;5054968;28;20066;-77
2023/06/29 10:04:02;;;;;;;10.95;8.23;;;;;;;;;;5077154;28;20056;-77
2023/06/29 10:06:36;;;;;;;9.60;7.68;;;;;;;;;;5045069;28;20048;-77
2023/06/29 10:09:04;;;;;;;10.88;8.50;;;;;;;;;;5061720;28;20062;-77
2023/06/29 10:11:31;;;;;;;11.68;9.30;;;;;;;;;;5045080;28;20025;-78
2023/06/29 10:14:03;;;;;;;11.23;8.15;;;;;;;;;;5063364;28;20036;-77
2023/06/29 10:16:32;;;;;;;13.10;8.80;;;;;;;;;;5045576;28;20168;-76
2023/06/29 10:19:06;;;;;;;11.07;8.65;;;;;;;;;;5062953;28;20476;-76
2023/06/29 10:21:32;;;;;;;11.68;7.97;;;;;;;;;;5062761;28;20028;-76
2023/06/29 10:23:58;;;;;;;11.50;8.43;;;;;;;;;;5047389;28;20054;-76
2023/06/29 10:26:23;;;;;;;11.55;8.98;;;;;;;;;;5062258;28;20036;-76
2023/06/29 10:28:49;;;;;;;9.73;7.93;;;;;;;;;;5047556;28;20033;-76
2023/06/29 10:31:21;;;;;;;11.27;9.00;;;;;;;;;;5063437;28;20477;-76
2023/06/29 10:33:48;;;;;;;11.48;8.07;;;;;;;;;;5063148;28;20391;-76
2023/06/29 10:36:15;;;;;;;12.45;9.10;;;;;;;;;;5062286;28;20033;-75
2023/06/29 10:38:40;;;;;;;9.45;8.02;;;;;;;;;;5062189;28;20032;-75
2023/06/29 10:41:06;;;;;;;10.35;8.15;;;;;;;;;;5080094;28;20525;-75
2023/06/29 10:44:00;;;;;;;10.88;8.52;;;;;;;;;;5061804;28;20075;-76
2023/06/29 10:46:44;;;;;;;10.30;8.40;;;;;;;;;;5044610;28;20024;-75
2023/06/29 10:49:22;;;;;;;;;;;;;;;;;;5079526;28;20032;-76
2023/06/29 10:51:56;;;;;;;11.68;8.13;;;;;;;;;;5061332;28;20359;-75
2023/06/29 10:54:24;;;;;;;14.95;8.85;;;;;;;;;;5061791;28;20040;-75
2023/06/29 10:57:06;;;;;;;15.98;9.13;;;;;;;;;;5044530;28;20029;-75
2023/06/29 10:59:33;;;;;;;15.43;9.35;;;;;;;;;;5061566;28;20103;-75
2023/06/29 11:01:59;;;;;;;11.90;8.90;;;;;;;;;;5079552;28;20059;-76
2023/06/29 11:04:24;;;;;;;14.00;9.52;;;;;;;;;;5049193;28;20143;-76
2023/06/29 11:06:51;;;;;;;13.38;9.45;;;;;;;;;;5024523;28;20525;-76
2023/06/29 11:09:19;;;;;;;14.27;8.85;;;;;;;;;;5008372;28;20449;-76
2023/06/29 11:11:47;;;;;;;13.77;8.88;;;;;;;;;;5041363;28;20029;-76
2023/06/29 11:14:16;;;;;;;14.73;9.35;;;;;;;;;;5040288;28;20025;-76
2023/06/29 11:16:41;;;;;;;10.57;8.15;;;;;;;;;;5004769;28;20384;-77
2023/06/29 11:19:07;;;;;;;13.15;7.78;;;;;;;;;;5036509;28;20040;-76
2023/06/29 11:21:33;;;;;;;10.88;8.55;;;;;;;;;;5054963;28;20056;-75
2023/06/29 11:23:58;;;;;;;12.38;8.60;;;;;;;;;;5040173;28;20035;-76
2023/06/29 11:26:24;;;;;;;11.23;8.20;;;;;;;;;;5038001;28;20057;-75
2023/06/29 11:28:51;;;;;;;10.98;7.95;;;;;;;;;;5037533;28;20107;-75
2023/06/29 11:31:17;;;;;;;13.00;8.77;;;;;;;;;;5037486;28;20043;-76
2023/06/29 11:33:49;;;;;;;11.75;9.07;;;;;;;;;;5037542;28;20024;-75
2023/06/29 11:36:16;;;;;;;11.80;8.55;;;;;;;;;;5021216;28;20033;-76
2023/06/29 11:38:42;;;;;;;12.60;8.60;;;;;;;;;;5037331;28;20392;-76
2023/06/29 11:41:07;;;;;;;10.07;8.55;;;;;;;;;;5063188;28;20040;-75
2023/06/29 11:43:33;;;;;;;11.20;8.63;;;;;;;;;;5023638;28;20032;-76
2023/06/29 11:45:58;;;;;;;12.63;8.77;;;;;;;;;;5058494;28;20463;-76
2023/06/29 11:48:24;;;;;;;11.20;8.55;;;;;;;;;;5055404;28;20031;-75
2023/06/29 11:50:49;;;;;;;10.93;8.50;;;;;;;;;;5051265;28;20143;-75
2023/06/29 11:53:15;;;;;;;11.57;8.60;;;;;;;;;;5057011;28;20394;-76
2023/06/29 11:55:50;;;;;;;12.02;8.90;;;;;;;;;;5061470;28;20083;-76
2023/06/29 11:58:16;;;;;;;11.00;8.70;;;;;;;;;;5054930;28;20036;-76
2023/06/29 12:00:41;;;;;;;13.52;8.68;;;;;;;;;;5036714;28;20036;-75
2023/06/29 12:03:08;;;;;;;11.20;8.45;;;;;;;;;;5055545;28;20091;-75
2023/06/29 12:05:38;;;;;;;10.63;8.38;;;;;;;;;;5086659;28;20028;-76
2023/06/29 12:08:05;;;;;;;11.27;8.35;;;;;;;;;;5076903;28;20034;-76
2023/06/29 12:10:37;;;;;;;10.48;8.60;;;;;;;;;;5094256;28;20055;-75
2023/06/29 12:13:03;;;;;;;10.93;8.25;;;;;;;;;;5076715;28;20020;-76
2023/06/29 12:15:34;;;;;;;11.25;8.20;;;;;;;;;;5065938;28;20039;-76
2023/06/29 12:18:07;;;;;;;11.38;8.70;;;;;;;;;;5056491;28;20033;-76
2023/06/29 12:20:47;;;;;;;12.90;8.98;;;;;;;;;;5065753;28;20448;-75
2023/06/29 12:23:14;;;;;;;11.15;8.80;;;;;;;;;;5076676;28;20028;-75
2023/06/29 12:25:44;;;;;;;12.23;8.77;;;;;;;;;;5064973;28;20393;-76
2023/06/29 12:28:09;;;;;;;10.68;8.57;;;;;;;;;;5057107;28;20082;-76
2023/06/29 12:30:52;;;;;;;11.68;9.10;;;;;;;;;;5057052;28;20395;-76
2023/06/29 12:33:18;;;;;;;11.02;8.82;;;;;;;;;;5056555;28;20020;-77
2023/06/29 12:35:43;;;;;;;11.15;8.63;;;;;;;;;;5074700;28;20443;-77
2023/06/29 12:38:09;;;;;;;11.73;8.65;;;;;;;;;;5056925;28;20066;-77
2023/06/29 12:40:34;;;;;;;11.10;8.85;;;;;;;;;;5074326;28;20158;-77
2023/06/29 12:43:00;;;;;;;12.27;9.00;;;;;;;;;;5040019;28;20054;-76
2023/06/29 12:45:26;;;;;;;16.13;9.98;;;;;;;;;;5040057;28;20024;-77
2023/06/29 12:47:51;;;;;;;10.65;8.63;;;;;;;;;;5058139;28;20032;-77
2023/06/29 12:50:17;;;;;;;10.93;8.82;;;;;;;;;;5074641;28;20044;-77
2023/06/29 12:52:47;;;;;;;10.82;8.50;;;;;;;;;;5057441;28;20103;-77
2023/06/29 12:55:12;;;;;;;13.25;9.32;;;;;;;;;;5056981;28;20368;-77
2023/06/29 12:57:39;;;;;;;11.93;9.38;;;;;;;;;;5076927;28;20024;-77
2023/06/29 13:00:05;;;;;;;11.90;9.07;;;;;;;;;;5060024;28;20021;-77
2023/06/29 13:02:31;;;;;;;12.75;9.23;;;;;;;;;;5026152;28;20067;-77
2023/06/29 13:04:57;;;;;;;10.85;8.50;;;;;;;;;;5023299;28;20065;-77
2023/06/29 13:07:23;;;;;;;10.98;8.52;;;;;;;;;;5019425;28;20116;-77
2023/06/29 13:09:49;;;;;;;13.95;9.30;;;;;;;;;;5035764;28;20025;-77
2023/06/29 13:12:14;;;;;;;12.63;9.80;;;;;;;;;;5036217;28;20029;-77
2023/06/29 13:14:41;;;;;;;13.10;9.25;;;;;;;;;;5035772;28;20481;-77
2023/06/29 13:17:07;;;;;;;13.55;9.20;;;;;;;;;;5019142;28;20101;-77
2023/06/29 13:19:33;;;;;;;12.73;9.43;;;;;;;;;;5019203;28;20502;-77
2023/06/29 13:22:00;;;;;;;11.32;9.57;;;;;;;;;;5053299;28;20035;-77
2023/06/29 13:24:25;;;;;;;11.05;8.95;;;;;;;;;;5019313;28;20120;-76
2023/06/29 13:26:51;;;;;;;11.57;9.48;;;;;;;;;;5035738;28;20106;-76
2023/06/29 13:29:19;;;;;;;14.50;9.93;;;;;;;;;;5035361;28;20033;-77
2023/06/29 13:31:44;;;;;;;11.02;9.07;;;;;;;;;;5036391;28;20020;-76
2023/06/29 13:34:10;;;;;;;10.20;8.68;;;;;;;;;;5035362;28;20425;-76
2023/06/29 13:36:35;;;;;;;11.32;8.65;;;;;;;;;;5018800;28;20049;-76
2023/06/29 13:39:01;;;;;;;12.05;9.20;;;;;;;;;;5052761;28;20035;-76
2023/06/29 13:41:43;;;;;;;10.98;8.85;;;;;;;;;;5035226;28;20048;-76
2023/06/29 13:44:09;;;;;;;13.13;8.60;;;;;;;;;;5036290;28;20024;-76
2023/06/29 13:46:36;;;;;;;12.20;8.82;;;;;;;;;;5053500;28;20024;-76
2023/06/29 13:49:02;;;;;;;11.27;8.50;;;;;;;;;;5018741;28;20079;-76
2023/06/29 13:51:29;;;;;;;10.50;8.20;;;;;;;;;;5035180;28;20044;-76
2023/06/29 13:53:55;;;;;;;11.82;8.30;;;;;;;;;;5035017;28;20472;-75
2023/06/29 13:56:20;;;;;;;10.77;8.45;;;;;;;;;;5034877;28;20027;-76
2023/06/29 13:58:45;;;;;;;11.30;8.23;;;;;;;;;;5035423;28;20087;-76
2023/06/29 14:01:11;;;;;;;9.20;7.50;;;;;;;;;;5035290;28;20025;-76
2023/06/29 14:03:36;;;;;;;12.10;8.13;;;;;;;;;;5024262;28;20059;-76
2023/06/29 14:06:02;;;;;;;9.27;7.50;;;;;;;;;;5038662;28;20035;-76
2023/06/29 14:08:27;;;;;;;10.68;7.72;;;;;;;;;;5072780;28;20161;-75
2023/06/29 14:10:53;;;;;;;11.52;7.72;;;;;;;;;;5072582;28;20031;-76
2023/06/29 14:13:18;;;;;;;8.80;7.43;;;;;;;;;;5054900;28;20029;-76
2023/06/29 14:15:44;;;;;;;9.63;7.70;;;;;;;;;;5073041;28;20033;-76
2023/06/29 14:18:09;;;;;;;9.48;7.30;;;;;;;;;;5038264;28;20394;-76
2023/06/29 14:20:34;;;;;;;9.32;7.40;;;;;;;;;;5054746;28;20120;-76
2023/06/29 14:23:00;;;;;;;10.38;7.30;;;;;;;;;;5055309;28;20109;-75
2023/06/29 14:25:25;;;;;;;11.20;7.22;;;;;;;;;;5055003;28;20523;-76
2023/06/29 14:27:51;;;;;;;9.35;7.15;;;;;;;;;;5038026;28;20043;-76
2023/06/29 14:30:16;;;;;;;10.00;7.13;;;;;;;;;;5054693;28;20039;-76
2023/06/29 14:32:42;;;;;;;9.07;7.05;;;;;;;;;;5072778;28;20031;-76